createdAt,value
2019-03-30T00:01:40.147Z,4.87
2019-03-30T00:04:08.770Z,5.83
2019-03-30T00:06:37.427Z,5.30
2019-03-30T00:09:08.236Z,5.13
2019-03-30T00:11:37.259Z,5.17
2019-03-30T00:14:06.054Z,5.00
2019-03-30T00:16:34.845Z,4.70
2019-03-30T00:19:03.404Z,4.67
2019-03-30T00:21:32.038Z,4.93
2019-03-30T00:24:00.743Z,4.87
2019-03-30T00:26:29.499Z,4.83
2019-03-30T00:28:58.374Z,4.97
2019-03-30T00:31:27.208Z,5.27
2019-03-30T00:33:55.941Z,5.03
2019-03-30T00:36:24.620Z,5.20
2019-03-30T00:38:53.484Z,5.00
2019-03-30T00:41:22.299Z,5.27
2019-03-30T00:43:51.200Z,5.20
2019-03-30T00:46:19.947Z,5.00
2019-03-30T00:48:48.677Z,5.63
2019-03-30T00:51:17.435Z,5.50
2019-03-30T00:53:46.282Z,5.27
2019-03-30T00:56:15.152Z,5.50
2019-03-30T00:58:43.927Z,4.97
2019-03-30T01:01:12.771Z,5.13
2019-03-30T01:03:41.396Z,5.73
2019-03-30T01:06:10.223Z,5.60
2019-03-30T01:08:39.035Z,5.27
2019-03-30T01:11:07.839Z,5.30
2019-03-30T01:13:36.632Z,5.37
2019-03-30T01:16:05.816Z,5.20
2019-03-30T01:18:34.438Z,5.77
2019-03-30T01:21:03.327Z,5.63
2019-03-30T01:23:32.254Z,5.67
2019-03-30T01:26:01.028Z,5.57
2019-03-30T01:28:29.639Z,4.70
2019-03-30T01:30:58.329Z,5.20
2019-03-30T01:33:27.013Z,5.20
2019-03-30T01:35:55.625Z,5.40
2019-03-30T01:38:43.096Z,5.37
2019-03-30T01:41:11.836Z,5.17
2019-03-30T01:43:40.626Z,4.53
2019-03-30T01:46:09.576Z,4.80
2019-03-30T01:48:38.299Z,5.70
2019-03-30T01:51:07.093Z,5.17
2019-03-30T01:53:35.840Z,4.97
2019-03-30T01:56:04.457Z,5.60
2019-03-30T01:58:33.202Z,5.70
2019-03-30T02:01:01.977Z,5.23
2019-03-30T02:03:30.853Z,5.70
2019-03-30T02:05:59.555Z,5.07
2019-03-30T02:08:28.416Z,5.80
2019-03-30T02:10:56.984Z,5.90
2019-03-30T02:13:25.788Z,5.60
2019-03-30T02:15:54.583Z,5.37
2019-03-30T02:18:23.346Z,5.10
2019-03-30T02:20:52.281Z,5.87
2019-03-30T02:23:21.021Z,5.60
2019-03-30T02:25:49.695Z,6.43
2019-03-30T02:28:18.504Z,5.50
2019-03-30T02:30:47.250Z,5.73
2019-03-30T02:33:16.075Z,5.73
2019-03-30T02:35:44.745Z,5.93
2019-03-30T02:38:13.604Z,5.93
2019-03-30T02:40:42.281Z,6.27
2019-03-30T02:43:11.104Z,6.70
2019-03-30T02:45:40.060Z,6.07
2019-03-30T02:48:08.905Z,6.77
2019-03-30T02:50:49.102Z,7.00
2019-03-30T02:53:08.027Z,6.83
2019-03-30T02:55:36.685Z,6.63
2019-03-30T02:58:05.401Z,7.27
2019-03-30T03:00:34.221Z,6.23
2019-03-30T03:03:03.057Z,7.30
2019-03-30T03:05:31.827Z,6.63
2019-03-30T03:08:00.607Z,6.83
2019-03-30T03:10:28.987Z,7.13
2019-03-30T03:12:57.583Z,7.10
2019-03-30T03:15:26.641Z,6.73
2019-03-30T03:17:55.284Z,7.07
2019-03-30T03:20:24.050Z,6.70
2019-03-30T03:22:52.979Z,7.00
2019-03-30T03:25:21.586Z,7.07
2019-03-30T03:27:50.205Z,7.27
2019-03-30T03:30:19.924Z,6.70
2019-03-30T03:32:48.712Z,6.63
2019-03-30T03:35:17.595Z,6.60
2019-03-30T03:37:46.687Z,6.23
2019-03-30T03:40:15.386Z,6.93
2019-03-30T03:42:45.617Z,7.00
2019-03-30T03:45:14.462Z,6.77
2019-03-30T03:47:43.219Z,7.40
2019-03-30T03:50:28.481Z,7.97
2019-03-30T03:52:57.234Z,7.67
2019-03-30T03:55:26.323Z,7.87
2019-03-30T03:57:55.245Z,7.97
2019-03-30T04:00:24.215Z,7.97
2019-03-30T04:02:53.462Z,7.40
2019-03-30T04:05:23.948Z,7.27
2019-03-30T04:07:55.981Z,7.80
2019-03-30T04:10:28.101Z,8.03
2019-03-30T04:12:59.216Z,8.17
2019-03-30T04:15:27.966Z,8.30
2019-03-30T04:17:56.743Z,7.97
2019-03-30T04:20:25.683Z,9.07
2019-03-30T04:22:54.565Z,7.93
2019-03-30T04:25:23.461Z,8.60
2019-03-30T04:27:52.251Z,9.17
2019-03-30T04:30:21.115Z,9.20
2019-03-30T04:32:50.046Z,8.60
2019-03-30T04:35:18.807Z,9.23
2019-03-30T04:37:47.528Z,9.17
2019-03-30T04:40:16.320Z,9.23
2019-03-30T04:42:45.068Z,8.73
2019-03-30T04:45:14.103Z,8.03
2019-03-30T04:47:43.048Z,7.30
2019-03-30T04:50:11.953Z,8.37
2019-03-30T04:52:40.781Z,8.67
2019-03-30T04:55:09.792Z,7.90
2019-03-30T04:57:38.499Z,8.60
2019-03-30T05:00:07.712Z,7.77
2019-03-30T05:02:39.280Z,8.10
2019-03-30T05:05:08.325Z,7.47
2019-03-30T05:07:39.812Z,7.97
2019-03-30T05:10:08.975Z,7.50
2019-03-30T05:12:37.535Z,6.87
2019-03-30T05:15:06.487Z,8.10
2019-03-30T05:17:46.910Z,7.40
2019-03-30T05:20:06.096Z,6.90
2019-03-30T05:22:34.937Z,8.07
2019-03-30T05:25:03.780Z,6.90
2019-03-30T05:27:32.468Z,7.30
2019-03-30T05:30:01.069Z,7.63
2019-03-30T05:32:29.905Z,8.27
2019-03-30T05:34:58.543Z,7.30
2019-03-30T05:37:31.753Z,7.57
2019-03-30T05:40:00.009Z,8.07
2019-03-30T05:42:28.616Z,8.60
2019-03-30T05:44:57.962Z,9.37
2019-03-30T05:47:27.018Z,9.77
2019-03-30T05:49:55.767Z,11.67
2019-03-30T05:52:26.781Z,12.33
2019-03-30T05:54:55.187Z,12.53
2019-03-30T05:57:35.841Z,13.50
2019-03-30T06:00:05.004Z,13.40
2019-03-30T06:02:33.924Z,14.17
2019-03-30T06:05:03.744Z,13.90
2019-03-30T06:07:32.687Z,16.93
2019-03-30T06:10:01.349Z,14.07
2019-03-30T06:12:30.086Z,15.50
2019-03-30T06:14:58.849Z,17.90
2019-03-30T06:17:27.498Z,16.27
2019-03-30T06:19:56.154Z,16.20
2019-03-30T06:22:24.915Z,17.03
2019-03-30T06:24:53.618Z,17.77
2019-03-30T06:27:22.419Z,17.93
2019-03-30T06:30:20.675Z,19.27
2019-03-30T06:32:49.476Z,17.98
2019-03-30T06:35:18.197Z,18.00
2019-03-30T06:37:47.850Z,15.98
2019-03-30T06:40:16.573Z,14.70
2019-03-30T06:42:45.363Z,17.80
2019-03-30T06:45:14.281Z,17.63
2019-03-30T06:47:43.039Z,16.03
2019-03-30T06:50:11.931Z,16.27
2019-03-30T06:52:46.040Z,15.30
2019-03-30T06:55:11.550Z,10.73
2019-03-30T06:57:40.283Z,9.57
2019-03-30T07:00:09.073Z,9.10
2019-03-30T07:02:38.403Z,8.20
2019-03-30T07:05:08.222Z,8.50
2019-03-30T07:07:38.219Z,8.20
2019-03-30T07:10:08.289Z,8.83
2019-03-30T07:12:40.490Z,9.10
2019-03-30T07:15:09.537Z,9.23
2019-03-30T07:17:44.763Z,9.10
2019-03-30T07:20:28.838Z,8.70
2019-03-30T07:23:10.687Z,9.53
2019-03-30T07:25:28.330Z,8.37
2019-03-30T07:27:57.224Z,9.07
2019-03-30T07:30:25.983Z,9.50
2019-03-30T07:32:54.995Z,9.90
2019-03-30T07:35:23.625Z,7.87
2019-03-30T07:37:52.425Z,7.50
2019-03-30T07:40:21.107Z,8.03
2019-03-30T07:42:49.790Z,8.73
2019-03-30T07:45:18.693Z,7.33
2019-03-30T07:47:47.215Z,7.80
2019-03-30T07:50:15.911Z,7.77
2019-03-30T07:52:44.642Z,6.60
2019-03-30T07:55:13.477Z,8.67
2019-03-30T07:57:42.152Z,8.07
2019-03-30T08:00:11.197Z,7.50
2019-03-30T08:02:39.826Z,7.50
2019-03-30T08:05:08.519Z,7.40
2019-03-30T08:07:37.480Z,6.57
2019-03-30T08:10:06.398Z,6.60
2019-03-30T08:12:35.071Z,7.10
2019-03-30T08:15:04.136Z,6.30
2019-03-30T08:17:32.765Z,7.73
2019-03-30T08:20:01.441Z,6.67
2019-03-30T08:22:30.272Z,7.00
2019-03-30T08:24:59.024Z,6.40
2019-03-30T08:27:27.723Z,7.17
2019-03-30T08:29:56.567Z,7.27
2019-03-30T08:32:25.316Z,6.40
2019-03-30T08:34:54.063Z,7.80
2019-03-30T08:37:22.942Z,7.97
2019-03-30T08:39:51.653Z,7.13
2019-03-30T08:42:20.528Z,7.87
2019-03-30T08:44:49.183Z,6.57
2019-03-30T08:47:17.796Z,6.43
2019-03-30T08:49:46.527Z,6.27
2019-03-30T08:52:15.227Z,5.80
2019-03-30T08:54:44.053Z,6.03
2019-03-30T08:57:12.747Z,5.43
2019-03-30T08:59:41.614Z,6.50
2019-03-30T09:02:10.430Z,5.63
2019-03-30T09:04:39.100Z,5.23
2019-03-30T09:07:08.005Z,6.53
2019-03-30T09:09:36.703Z,5.40
2019-03-30T09:12:05.381Z,5.50
2019-03-30T09:14:34.240Z,5.67
2019-03-30T09:17:02.964Z,6.00
2019-03-30T09:19:31.727Z,5.67
2019-03-30T09:22:00.408Z,6.60
2019-03-30T09:24:29.039Z,6.17
2019-03-30T09:26:57.704Z,5.43
2019-03-30T09:29:26.477Z,5.60
2019-03-30T09:31:55.171Z,5.77
2019-03-30T09:34:23.992Z,6.47
2019-03-30T09:36:52.893Z,6.07
2019-03-30T09:39:21.751Z,7.03
2019-03-30T09:41:50.622Z,6.17
2019-03-30T09:44:19.475Z,6.27
2019-03-30T09:46:48.187Z,5.83
2019-03-30T09:49:16.982Z,6.13
2019-03-30T09:51:45.831Z,5.67
2019-03-30T09:54:23.702Z,6.57
2019-03-30T09:56:44.989Z,6.00
2019-03-30T09:59:13.832Z,5.60
2019-03-30T10:01:42.588Z,6.03
2019-03-30T10:04:11.687Z,4.63
2019-03-30T10:06:40.383Z,5.70
2019-03-30T10:09:09.118Z,5.23
2019-03-30T10:11:37.712Z,5.67
2019-03-30T10:14:06.444Z,5.60
2019-03-30T10:16:35.083Z,6.00
2019-03-30T10:19:22.650Z,5.27
2019-03-30T10:21:51.298Z,6.03
2019-03-30T10:24:19.988Z,5.50
2019-03-30T10:26:48.751Z,5.87
2019-03-30T10:29:17.455Z,6.53
2019-03-30T10:31:46.250Z,6.17
2019-03-30T10:34:15.063Z,5.33
2019-03-30T10:36:43.701Z,5.27
2019-03-30T10:39:12.444Z,5.10
2019-03-30T10:41:41.247Z,5.50
2019-03-30T10:44:09.882Z,5.23
2019-03-30T10:46:38.764Z,5.37
2019-03-30T10:49:07.506Z,6.33
2019-03-30T10:51:36.035Z,6.33
2019-03-30T10:54:04.803Z,5.37
2019-03-30T10:56:33.447Z,4.90
2019-03-30T10:59:02.298Z,5.00
2019-03-30T11:01:30.967Z,5.23
2019-03-30T11:03:59.708Z,5.27
2019-03-30T11:06:28.484Z,7.37
2019-03-30T11:08:57.235Z,5.70
2019-03-30T11:11:25.916Z,6.23
2019-03-30T11:13:54.591Z,5.90
2019-03-30T11:16:23.330Z,4.80
2019-03-30T11:18:51.939Z,5.40
2019-03-30T11:21:20.849Z,5.62
2019-03-30T11:23:49.653Z,5.97
2019-03-30T11:26:18.395Z,5.47
2019-03-30T11:28:47.343Z,7.17
2019-03-30T11:31:16.236Z,5.62
2019-03-30T11:33:44.943Z,5.92
2019-03-30T11:36:13.811Z,5.42
2019-03-30T11:38:42.488Z,4.90
2019-03-30T11:41:11.325Z,5.33
2019-03-30T11:43:40.058Z,4.30
2019-03-30T11:46:08.844Z,5.10
2019-03-30T11:48:37.804Z,4.60
2019-03-30T11:51:06.445Z,5.85
2019-03-30T11:53:53.972Z,6.00
2019-03-30T11:56:22.762Z,4.90
2019-03-30T11:58:51.444Z,6.20
2019-03-30T12:01:21.776Z,5.20
2019-03-30T12:03:50.827Z,5.80
2019-03-30T12:06:19.624Z,6.12
2019-03-30T12:08:49.240Z,5.50
2019-03-30T12:11:17.904Z,5.17
2019-03-30T12:13:46.833Z,4.83
2019-03-30T12:16:15.668Z,4.50
2019-03-30T12:18:44.323Z,5.10
2019-03-30T12:21:13.069Z,5.67
2019-03-30T12:23:42.713Z,4.60
2019-03-30T12:26:11.744Z,4.77
2019-03-30T12:28:59.356Z,4.37
2019-03-30T12:31:28.087Z,4.97
2019-03-30T12:33:56.964Z,5.07
2019-03-30T12:36:25.823Z,4.70
2019-03-30T12:38:54.352Z,4.60
2019-03-30T12:41:23.087Z,4.30
2019-03-30T12:43:51.780Z,4.60
2019-03-30T12:46:20.500Z,4.40
2019-03-30T12:48:49.232Z,5.07
2019-03-30T12:51:18.043Z,4.43
2019-03-30T12:53:50.360Z,4.43
2019-03-30T12:56:17.285Z,5.33
2019-03-30T12:58:46.129Z,5.30
2019-03-30T13:01:15.676Z,5.00
2019-03-30T13:03:44.565Z,5.43
2019-03-30T13:06:13.443Z,4.90
2019-03-30T13:08:42.076Z,5.23
2019-03-30T13:11:12.828Z,4.90
2019-03-30T13:13:41.449Z,5.10
2019-03-30T13:16:10.287Z,5.37
2019-03-30T13:18:38.927Z,5.03
2019-03-30T13:21:07.724Z,8.80
2019-03-30T13:23:36.564Z,7.63
2019-03-30T13:26:05.123Z,6.60
2019-03-30T13:28:33.910Z,5.30
2019-03-30T13:31:02.673Z,4.50
2019-03-30T13:33:31.393Z,5.50
2019-03-30T13:36:00.227Z,4.40
2019-03-30T13:38:28.856Z,5.27
2019-03-30T13:40:57.707Z,4.77
2019-03-30T13:43:26.377Z,4.63
2019-03-30T13:45:55.493Z,4.40
2019-03-30T13:48:24.056Z,4.90
2019-03-30T13:50:52.947Z,4.67
2019-03-30T13:53:21.892Z,4.80
2019-03-30T13:55:50.739Z,5.10
2019-03-30T13:58:19.940Z,5.30
2019-03-30T14:00:48.561Z,4.87
2019-03-30T14:03:16.595Z,5.15
2019-03-30T14:05:44.559Z,4.85
2019-03-30T14:08:12.981Z,5.28
2019-03-30T14:10:41.356Z,5.35
2019-03-30T14:13:11.167Z,5.25
2019-03-30T14:15:39.546Z,5.30
2019-03-30T14:18:07.689Z,5.17
2019-03-30T14:20:36.096Z,6.05
2019-03-30T14:23:04.243Z,5.40
2019-03-30T14:25:32.322Z,5.50
2019-03-30T14:28:00.552Z,7.80
2019-03-30T14:30:28.658Z,5.10
2019-03-30T14:32:58.046Z,5.92
2019-03-30T14:35:26.086Z,4.80
2019-03-30T14:37:54.195Z,4.90
2019-03-30T14:40:22.509Z,4.70
2019-03-30T14:42:50.811Z,4.73
2019-03-30T14:45:19.163Z,5.35
2019-03-30T14:47:47.459Z,12.20
2019-03-30T14:50:16.010Z,5.12
2019-03-30T14:52:44.286Z,5.70
2019-03-30T14:55:12.339Z,4.90
2019-03-30T14:57:40.486Z,4.43
2019-03-30T15:00:08.835Z,5.28
2019-03-30T15:02:36.941Z,5.50
2019-03-30T15:05:05.878Z,5.47
2019-03-30T15:07:34.065Z,4.90
2019-03-30T15:10:02.198Z,5.80
2019-03-30T15:12:30.609Z,5.20
2019-03-30T15:14:58.570Z,5.85
2019-03-30T15:17:26.668Z,6.40
2019-03-30T15:19:54.745Z,6.10
2019-03-30T15:22:23.021Z,6.72
2019-03-30T15:25:03.382Z,6.25
2019-03-30T15:27:31.559Z,5.57
2019-03-30T15:29:59.795Z,6.03
2019-03-30T15:32:28.176Z,6.28
2019-03-30T15:34:58.427Z,6.12
2019-03-30T15:37:26.324Z,5.83
2019-03-30T15:39:54.632Z,5.80
2019-03-30T15:42:22.786Z,6.15
2019-03-30T15:44:50.968Z,6.62
2019-03-30T15:47:19.379Z,6.15
2019-03-30T15:49:47.536Z,7.10
2019-03-30T15:52:15.814Z,5.87
2019-03-30T15:54:44.005Z,4.93
2019-03-30T15:57:14.362Z,5.03
2019-03-30T15:59:42.204Z,5.37
2019-03-30T16:02:10.478Z,4.50
2019-03-30T16:04:38.657Z,4.57
2019-03-30T16:07:26.784Z,5.90
2019-03-30T16:09:55.050Z,5.20
2019-03-30T16:12:42.541Z,6.47
2019-03-30T16:15:11.778Z,5.57
2019-03-30T16:17:40.041Z,5.27
2019-03-30T16:20:09.452Z,5.63
2019-03-30T16:22:37.498Z,6.23
2019-03-30T16:25:06.710Z,6.40
2019-03-30T16:27:34.913Z,5.57
2019-03-30T16:30:03.364Z,6.33
2019-03-30T16:32:31.540Z,6.33
2019-03-30T16:34:59.839Z,5.40
2019-03-30T16:37:28.089Z,5.27
2019-03-30T16:39:56.262Z,5.57
2019-03-30T16:42:24.471Z,5.10
2019-03-30T16:44:52.813Z,4.47
2019-03-30T16:47:21.014Z,5.10
2019-03-30T16:49:49.237Z,5.80
2019-03-30T16:52:17.539Z,6.70
2019-03-30T16:54:45.694Z,5.30
2019-03-30T16:57:13.999Z,5.57
2019-03-30T16:59:42.195Z,6.57
2019-03-30T17:02:10.318Z,6.37
2019-03-30T17:04:38.716Z,4.87
2019-03-30T17:07:06.846Z,5.40
2019-03-30T17:09:35.031Z,6.40
2019-03-30T17:12:03.435Z,5.63
2019-03-30T17:14:31.635Z,5.67
2019-03-30T17:16:59.759Z,5.47
2019-03-30T17:19:27.887Z,6.27
2019-03-30T17:21:55.985Z,5.77
2019-03-30T17:24:24.217Z,5.50
2019-03-30T17:26:52.373Z,5.73
2019-03-30T17:29:20.664Z,8.07
2019-03-30T17:31:48.935Z,6.63
2019-03-30T17:34:17.032Z,6.30
2019-03-30T17:36:45.273Z,7.23
2019-03-30T17:39:13.751Z,6.63
2019-03-30T17:41:42.186Z,6.77
2019-03-30T17:44:10.363Z,7.30
2019-03-30T17:46:38.886Z,7.57
2019-03-30T17:49:07.135Z,8.27
2019-03-30T17:51:35.323Z,7.00
2019-03-30T17:54:03.611Z,6.30
2019-03-30T17:56:31.816Z,6.37
2019-03-30T17:59:00.059Z,6.80
2019-03-30T18:01:28.358Z,9.07
2019-03-30T18:03:56.526Z,10.00
2019-03-30T18:06:24.787Z,10.83
2019-03-30T18:08:53.058Z,12.03
2019-03-30T18:11:21.361Z,12.30
2019-03-30T18:13:49.609Z,10.13
2019-03-30T18:16:17.988Z,8.43
2019-03-30T18:18:46.394Z,9.00
2019-03-30T18:21:14.645Z,8.43
2019-03-30T18:23:42.778Z,14.30
2019-03-30T18:26:10.988Z,13.33
2019-03-30T18:28:39.124Z,13.67
2019-03-30T18:31:07.642Z,12.03
2019-03-30T18:33:35.656Z,11.30
2019-03-30T18:36:03.804Z,12.50
2019-03-30T18:38:32.171Z,10.70
2019-03-30T18:41:01.565Z,9.60
2019-03-30T18:43:29.946Z,11.73
2019-03-30T18:45:58.219Z,13.03
2019-03-30T18:48:26.527Z,13.27
2019-03-30T18:50:54.870Z,13.80
2019-03-30T18:53:23.146Z,12.83
2019-03-30T18:55:51.351Z,15.50
2019-03-30T18:58:19.555Z,13.80
2019-03-30T19:00:47.987Z,13.53
2019-03-30T19:03:19.708Z,15.50
2019-03-30T19:05:46.471Z,15.27
2019-03-30T19:08:14.720Z,12.93
2019-03-30T19:10:43.021Z,14.97
2019-03-30T19:13:11.194Z,15.23
2019-03-30T19:15:39.572Z,15.67
2019-03-30T19:18:08.775Z,15.00
2019-03-30T19:20:37.028Z,13.90
2019-03-30T19:23:05.325Z,15.00
2019-03-30T19:25:33.496Z,15.63
2019-03-30T19:28:01.571Z,15.30
2019-03-30T19:30:29.929Z,16.43
2019-03-30T19:32:58.526Z,18.03
2019-03-30T19:35:26.598Z,18.07
2019-03-30T19:37:54.873Z,15.43
2019-03-30T19:40:23.174Z,15.17
2019-03-30T19:42:51.529Z,15.20
2019-03-30T19:45:19.903Z,16.23
2019-03-30T19:47:48.346Z,15.47
2019-03-30T19:50:16.531Z,16.53
2019-03-30T19:52:44.736Z,16.23
2019-03-30T19:55:12.966Z,15.27
2019-03-30T19:57:41.283Z,16.30
2019-03-30T20:00:10.600Z,14.63
2019-03-30T20:02:38.882Z,15.20
2019-03-30T20:05:07.374Z,16.67
2019-03-30T20:07:35.717Z,14.83
2019-03-30T20:10:04.858Z,15.80
2019-03-30T20:12:33.023Z,15.47
2019-03-30T20:15:01.260Z,16.17
2019-03-30T20:17:29.784Z,15.53
2019-03-30T20:19:57.874Z,16.53
2019-03-30T20:22:26.466Z,15.67
2019-03-30T20:24:54.709Z,14.80
2019-03-30T20:27:23.075Z,15.40
2019-03-30T20:29:51.307Z,15.83
2019-03-30T20:32:20.012Z,14.77
2019-03-30T20:34:48.034Z,14.97
2019-03-30T20:37:17.689Z,14.17
2019-03-30T20:39:46.314Z,14.27
2019-03-30T20:42:16.369Z,13.70
2019-03-30T20:44:45.072Z,33.00
2019-03-30T20:47:13.557Z,17.73
2019-03-30T20:49:43.040Z,16.93
2019-03-30T20:52:11.698Z,14.90
2019-03-30T20:54:41.317Z,12.77
2019-03-30T20:57:11.570Z,14.67
2019-03-30T20:59:40.629Z,14.27
2019-03-30T21:02:14.059Z,10.70
2019-03-30T21:04:42.338Z,11.90
2019-03-30T21:07:11.646Z,10.37
2019-03-30T21:09:45.095Z,10.97
2019-03-30T21:12:27.953Z,10.87
2019-03-30T21:15:00.354Z,11.73
2019-03-30T21:17:35.747Z,9.40
2019-03-30T21:20:06.199Z,10.67
2019-03-30T21:22:37.187Z,11.40
2019-03-30T21:25:07.187Z,9.70
2019-03-30T21:27:38.448Z,8.67
2019-03-30T21:30:08.077Z,9.57
2019-03-30T21:32:36.299Z,9.53
2019-03-30T21:35:05.008Z,10.07
2019-03-30T21:37:33.649Z,9.70
2019-03-30T21:40:02.359Z,9.93
2019-03-30T21:42:30.709Z,10.60
2019-03-30T21:44:59.291Z,10.87
2019-03-30T21:47:27.772Z,9.87
2019-03-30T21:49:56.117Z,9.20
2019-03-30T21:52:24.456Z,9.37
2019-03-30T21:54:52.810Z,10.07
2019-03-30T21:57:21.183Z,9.80
2019-03-30T21:59:49.457Z,9.27
2019-03-30T22:02:17.597Z,9.77
2019-03-30T22:04:45.832Z,8.77
2019-03-30T22:07:13.940Z,9.37
2019-03-30T22:09:42.252Z,9.07
2019-03-30T22:12:10.632Z,9.27
2019-03-30T22:14:38.776Z,9.23
2019-03-30T22:17:06.941Z,9.27
2019-03-30T22:19:35.354Z,9.33
2019-03-30T22:22:03.734Z,10.10
2019-03-30T22:24:32.014Z,9.97
2019-03-30T22:27:00.255Z,8.67
2019-03-30T22:29:28.563Z,9.00
2019-03-30T22:31:56.699Z,8.13
2019-03-30T22:34:24.840Z,9.10
2019-03-30T22:36:53.052Z,8.27
2019-03-30T22:39:21.457Z,8.10
2019-03-30T22:41:49.671Z,9.17
2019-03-30T22:44:22.475Z,8.63
2019-03-30T22:46:50.703Z,8.37
2019-03-30T22:49:19.029Z,8.40
2019-03-30T22:51:47.125Z,9.13
2019-03-30T22:54:15.278Z,9.50
2019-03-30T22:56:43.534Z,10.40
2019-03-30T22:59:11.621Z,9.53
2019-03-30T23:01:39.907Z,10.87
2019-03-30T23:04:08.304Z,11.53
2019-03-30T23:06:36.438Z,11.07
2019-03-30T23:09:05.859Z,10.83
2019-03-30T23:11:33.979Z,10.33
2019-03-30T23:14:02.111Z,10.43
2019-03-30T23:16:30.283Z,10.70
2019-03-30T23:18:58.489Z,11.70
2019-03-30T23:21:26.514Z,10.37
2019-03-30T23:23:54.697Z,9.87
2019-03-30T23:26:22.853Z,10.07
2019-03-30T23:28:51.034Z,10.90
2019-03-30T23:31:19.195Z,9.93
2019-03-30T23:33:47.444Z,9.43
2019-03-30T23:36:15.547Z,9.07
2019-03-30T23:38:43.732Z,8.67
2019-03-30T23:41:11.850Z,8.73
2019-03-30T23:43:39.967Z,9.57
2019-03-30T23:46:08.044Z,8.73
2019-03-30T23:48:36.078Z,9.40
2019-03-30T23:51:04.170Z,9.30
2019-03-30T23:53:32.583Z,8.40
2019-03-30T23:56:00.711Z,8.03
2019-03-30T23:58:28.941Z,8.20
